Map

Track Data

SID SEASON NUMBER BASIN SUBBASIN NAME ISO_TIME NATURE LAT LON WMO_WIND WMO_PRES WMO_AGENCY TRACK_TYPE DIST2LAND LANDFALL IFLAG USA_AGENCY USA_ATCF_ID USA_LAT USA_LON USA_RECORD USA_STATUS USA_WIND USA_PRES USA_SSHS USA_R34_NE USA_R34_SE USA_R34_SW USA_R34_NW USA_R50_NE USA_R50_SE USA_R50_SW USA_R50_NW USA_R64_NE USA_R64_SE USA_R64_SW USA_R64_NW USA_POCI USA_ROCI USA_RMW USA_EYE TOKYO_LAT TOKYO_LON TOKYO_GRADE TOKYO_WIND TOKYO_PRES TOKYO_R50_DIR TOKYO_R50_LONG TOKYO_R50_SHORT TOKYO_R30_DIR TOKYO_R30_LONG TOKYO_R30_SHORT TOKYO_LAND CMA_LAT CMA_LON CMA_CAT CMA_WIND CMA_PRES HKO_LAT HKO_LON HKO_CAT HKO_WIND HKO_PRES NEWDELHI_LAT NEWDELHI_LON NEWDELHI_GRADE NEWDELHI_WIND NEWDELHI_PRES NEWDELHI_CI NEWDELHI_DP NEWDELHI_POCI REUNION_LAT REUNION_LON REUNION_TYPE REUNION_WIND REUNION_PRES REUNION_TNUM REUNION_CI REUNION_RMW REUNION_R34_NE REUNION_R34_SE REUNION_R34_SW REUNION_R34_NW REUNION_R50_NE REUNION_R50_SE REUNION_R50_SW REUNION_R50_NW REUNION_R64_NE REUNION_R64_SE REUNION_R64_SW REUNION_R64_NW BOM_LAT BOM_LON BOM_TYPE BOM_WIND BOM_PRES BOM_TNUM BOM_CI BOM_RMW BOM_R34_NE BOM_R34_SE BOM_R34_SW BOM_R34_NW BOM_R50_NE BOM_R50_SE BOM_R50_SW BOM_R50_NW BOM_R64_NE BOM_R64_SE BOM_R64_SW BOM_R64_NW BOM_ROCI BOM_POCI BOM_EYE BOM_POS_METHOD BOM_PRES_METHOD NADI_LAT NADI_LON NADI_CAT NADI_WIND NADI_PRES WELLINGTON_LAT WELLINGTON_LON WELLINGTON_WIND WELLINGTON_PRES DS824_LAT DS824_LON DS824_STAGE DS824_WIND DS824_PRES TD9636_LAT TD9636_LON TD9636_STAGE TD9636_WIND TD9636_PRES TD9635_LAT TD9635_LON TD9635_WIND TD9635_PRES TD9635_ROCI NEUMANN_LAT NEUMANN_LON NEUMANN_CLASS NEUMANN_WIND NEUMANN_PRES MLC_LAT MLC_LON MLC_CLASS MLC_WIND MLC_PRES USA_GUST BOM_GUST BOM_GUST_PER REUNION_GUST REUNION_GUST_PER USA_SEAHGT USA_SEARAD_NE USA_SEARAD_SE USA_SEARAD_SW USA_SEARAD_NW STORM_SPEED STORM_DIR
1887135N29296 1887 10 NA NA NOT_NAMED 1887-05-15 00:00:00 MX 29.3000 -63.8000 35 hurdat_atl main 1231 1231 O____________O hurdat_atl AL011887 29.3000 -63.8000 TS 35 0 29.3000 -63.8000 SS 35 6 326
1887135N29296 1887 10 NA NA NOT_NAMED 1887-05-15 03:00:00 MX 29.5500 -63.9899 main 1262 1247 P____________P AL011887 29.5500 -63.9899 TS 35 0 29.5500 -63.9899 SS 35 6 325
1887135N29296 1887 10 NA NA NOT_NAMED 1887-05-15 06:00:00 MX 29.8000 -64.2000 35 hurdat_atl main 1247 1218 O____________O hurdat_atl AL011887 29.8000 -64.2000 TS 35 0 29.8000 -64.2000 SS 35 6 322
1887135N29296 1887 10 NA NA NOT_NAMED 1887-05-15 09:00:00 MX 30.0500 -64.4426 main 1218 1175 P____________P AL011887 30.0500 -64.4426 TS 37 0 30.0500 -64.4426 SS 37 7 319
1887135N29296 1887 10 NA NA NOT_NAMED 1887-05-15 12:00:00 MX 30.3000 -64.7000 40 hurdat_atl main 1175 1139 O____________O hurdat_atl AL011887 30.3000 -64.7000 TS 40 0 30.3000 -64.7000 SS 40 7 318
1887135N29296 1887 10 NA NA NOT_NAMED 1887-05-15 15:00:00 MX 30.5500 -64.9650 main 1133 1105 P____________P AL011887 30.5500 -64.9650 TS 40 0 30.5500 -64.9650 SS 40 7 319
1887135N29296 1887 10 NA NA NOT_NAMED 1887-05-15 18:00:00 MX 30.8000 -65.2000 40 hurdat_atl main 1105 1077 O____________O hurdat_atl AL011887 30.8000 -65.2000 TS 40 0 30.8000 -65.2000 SS 40 6 325
1887135N29296 1887 10 NA NA NOT_NAMED 1887-05-15 21:00:00 MX 31.0499 -65.3726 main 1077 1051 P____________P AL011887 31.0499 -65.3726 TS 42 0 31.0499 -65.3726 SS 42 6 333
1887135N29296 1887 10 NA NA NOT_NAMED 1887-05-16 00:00:00 MX 31.3000 -65.5000 45 hurdat_atl main 1051 1031 O____________O hurdat_atl AL011887 31.3000 -65.5000 TS 45 0 31.3000 -65.5000 SS 45 5 339
1887135N29296 1887 10 NA NA NOT_NAMED 1887-05-16 03:00:00 MX 31.5499 -65.6002 main 1031 1007 P____________P AL011887 31.5499 -65.6002 TS 47 0 31.5499 -65.6002 SS 45 5 341
1887135N29296 1887 10 NA NA NOT_NAMED 1887-05-16 06:00:00 MX 31.8000 -65.7000 50 hurdat_atl main 1007 988 O____________O hurdat_atl AL011887 31.8000 -65.7000 TS 50 0 31.8000 -65.7000 SS 45 5 338
1887135N29296 1887 10 NA NA NOT_NAMED 1887-05-16 09:00:00 MX 32.0575 -65.8400 main 982 956 P____________P AL011887 32.0575 -65.8425 TS 52 0 32.0575 -65.8350 SS 45 6 333
1887135N29296 1887 10 NA NA NOT_NAMED 1887-05-16 12:00:00 MX 32.3000 -66.0000 55 hurdat_atl main 956 929 O____________O hurdat_atl AL011887 32.3000 -66.0000 TS 55 0 32.3000 -66.0000 SS 45 5 328
1887135N29296 1887 10 NA NA NOT_NAMED 1887-05-16 15:00:00 MX 32.5050 -66.1692 main 929 911 P____________P AL011887 32.5000 -66.1576 TS 57 0 32.5150 -66.1925 SS 45 5 325
1887135N29296 1887 10 NA NA NOT_NAMED 1887-05-16 18:00:00 MX 32.7000 -66.3333 60 hurdat_atl main 911 885 O____________O hurdat_atl AL011887 32.7000 -66.3000 TS 60 0 32.7000 -66.4000 SS 45 5 328
1887135N29296 1887 10 NA NA NOT_NAMED 1887-05-16 21:00:00 MX 32.9116 -66.4718 main 885 867 P____________P AL011887 32.9425 -66.4076 TS 60 0 32.8500 -66.6002 SS 45 5 333
1887135N29296 1887 10 NA NA NOT_NAMED 1887-05-17 00:00:00 MX 33.1333 -66.6000 60 hurdat_atl main 867 850 O____________O hurdat_atl AL011887 33.2000 -66.5000 TS 60 0 33.0000 -66.8000 SS 45 5 333
1887135N29296 1887 10 NA NA NOT_NAMED 1887-05-17 03:00:00 MX 33.3592 -66.7458 main 846 821 P____________P AL011887 33.4425 -66.6149 TS 60 0 33.1925 -67.0075 SS 45 5 334
1887135N29296 1887 10 NA NA NOT_NAMED 1887-05-17 06:00:00 MX 33.6000 -66.8667 60 hurdat_atl main 821 814 O____________O hurdat_atl AL011887 33.7000 -66.7000 TS 60 0 33.4000 -67.2000 SS 45 5 342
1887135N29296 1887 10 NA NA NOT_NAMED 1887-05-17 09:00:00 MX 33.8592 -66.9442 main 810 795 P____________P AL011887 33.9925 -66.7151 TS 60 0 33.5925 -67.4023 SS 45 5 351
1887135N29296 1887 10 NA NA NOT_NAMED 1887-05-17 12:00:00 MX 34.1333 -66.9667 60 hurdat_atl main 795 789 O____________O hurdat_atl AL011887 34.3000 -66.7000 TS 60 0 33.8000 -67.5000 SS 45 997 6 0
1887135N29296 1887 10 NA NA NOT_NAMED 1887-05-17 15:00:00 MX 34.4217 -66.9293 main 795 788 P____________P AL011887 34.6075 -66.7000 TS 57 0 34.0501 -67.3879 SS 45 6 8
1887135N29296 1887 10 NA NA NOT_NAMED 1887-05-17 18:00:00 MX 34.7000 -66.8667 55 hurdat_atl main 788 786 O____________O hurdat_atl AL011887 34.9000 -66.7000 TS 55 0 34.3000 -67.2000 SS 45 5 8
1887135N29296 1887 10 NA NA NOT_NAMED 1887-05-17 21:00:00 MX 34.9408 -66.8333 main 793 775 P____________P AL011887 35.1575 -66.7000 TS 52 0 34.5074 -67.0998 SS 45 5 7
1887135N29296 1887 10 NA NA NOT_NAMED 1887-05-18 00:00:00 MX 35.1667 -66.8000 50 hurdat_atl main 775 754 O____________O hurdat_atl AL011887 35.4000 -66.7000 TS 50 0 34.7000 -67.0000 SS 45 5 9
1887135N29296 1887 10 NA NA NOT_NAMED 1887-05-18 03:00:00 MX 35.3950 -66.7500 main 754 736 P____________P AL011887 35.6425 -66.7000 TS 47 0 34.9000 -66.8500 SS 45 5 9
1887135N29296 1887 10 NA NA NOT_NAMED 1887-05-18 06:00:00 MX 35.6333 -66.7000 45 hurdat_atl main 736 716 O____________O hurdat_atl AL011887 35.9000 -66.7000 TS 45 0 35.1000 -66.7000 SS 45 5 6
1887135N29296 1887 10 NA NA NOT_NAMED 1887-05-18 09:00:00 MX 35.8422 -66.6959 main 716 685 P____________P AL011887 36.1475 -66.7000 TS 42 0 35.2317 -66.6877 SS 42 5 6
1887135N29296 1887 10 NA NA NOT_NAMED 1887-05-18 12:00:00 MX 36.1667 -66.6333 40 hurdat_atl main 678 636 O____________O hurdat_atl AL011887 36.5000 -66.7000 EX 40 -4 35.5000 -66.5000 SS 40 1003 9 14
1887135N29296 1887 10 NA NA NOT_NAMED 1887-05-18 15:00:00 MX 36.7036 -66.4310 main 636 573 P____________P AL011887 37.0100 -66.7217 EX 40 -4 36.0908 -65.8495 SS 40 13 14
1887135N29296 1887 10 NA NA NOT_NAMED 1887-05-18 18:00:00 ET 37.4545 -66.2364 40 hurdat_atl main 568 502 O____________O hurdat_atl AL011887 37.7000 -66.7000 EX 40 -4 36.8000 -65.0000 EX 40 17 9
1887135N29296 1887 10 NA NA NOT_NAMED 1887-05-18 21:00:00 ET 38.3425 -66.1194 main 502 423 P____________P AL011887 38.5700 -66.5948 EX 40 -4 37.4325 -64.2178 EX 40 19 4
1887135N29296 1887 10 NA NA NOT_NAMED 1887-05-19 00:00:00 ET 39.3333 -66.0778 40 hurdat_atl main 423 357 O____________O hurdat_atl AL011887 39.5000 -66.4000 EX 40 -4 38.0000 -63.5000 EX 40 20 0
1887135N29296 1887 10 NA NA NOT_NAMED 1887-05-19 03:00:00 ET 40.3449 -66.1374 main 357 267 P_____________ AL011887 40.3449 -66.1374 EX 37 -4 EX 18 7
1887135N29296 1887 10 NA NA NOT_NAMED 1887-05-19 06:00:00 ET 41.1000 -65.8000 35 hurdat_atl main 267 200 O_____________ hurdat_atl AL011887 41.1000 -65.8000 EX 35 -4 14 21
1887135N29296 1887 10 NA NA NOT_NAMED 1887-05-19 09:00:00 ET 41.6918 -65.4641 main 200 135 P_____________ AL011887 41.6918 -65.4641 EX 35 -4 13 26
1887135N29296 1887 10 NA NA NOT_NAMED 1887-05-19 12:00:00 ET 42.3000 -65.0000 35 hurdat_atl main 135 91 O_____________ hurdat_atl AL011887 42.3000 -65.0000 EX 35 -4 15 31
1887135N29296 1887 10 NA NA NOT_NAMED 1887-05-19 15:00:00 ET 43.0128 -64.4043 main 91 55 P_____________ AL011887 43.0128 -64.4043 EX 35 -4 20 33
1887135N29296 1887 10 NA NA NOT_NAMED 1887-05-19 18:00:00 ET 44.0000 -63.5000 35 hurdat_atl main 45 0 O_____________ hurdat_atl AL011887 44.0000 -63.5000 EX 35 -4 28 34
1887135N29296 1887 10 NA NA NOT_NAMED 1887-05-19 21:00:00 ET 45.3235 -62.2446 main 0 0 P_____________ AL011887 45.3235 -62.2446 EX 35 -4 37 35
1887135N29296 1887 10 NA NA NOT_NAMED 1887-05-20 00:00:00 ET 47.0000 -60.5000 35 hurdat_atl main 11 0 O_____________ hurdat_atl AL011887 47.0000 -60.5000 EX 35 -4 45 37
1887135N29296 1887 10 NA NA NOT_NAMED 1887-05-20 03:00:00 ET 48.9471 -58.2180 main 0 0 P_____________ AL011887 48.9471 -58.2180 EX 35 -4 52 39
1887135N29296 1887 10 NA NA NOT_NAMED 1887-05-20 06:00:00 ET 51.0000 -55.5000 35 hurdat_atl main 17 O_____________ hurdat_atl AL011887 51.0000 -55.5000 EX 35 -4 54 40

About IBTrACS Database

This database is a web-friendly format of International Best Track Archive for Climate Stewardship (IBTrACS), a global best track data archive curated by NOAA dating back to 1842.

Updated: 2021-12-01